If you wish to contribute or participate in the discussions about articles you are invited to join SKYbrary as a registered user

 Actions

Valence-Chabeuil Airport

From SKYbrary Wiki

LFLU
Airport
ICAO: LFLU – IATA: VAF
Summary
Name Valence-Chabeuil Airport
Region Europe
Territory France FR.gif
Location , Rhone-Alpes
Serving Valence
Elevation 160.02 m
525 ft
525 ft160.02 m
Type medium airport
Coordinates 44° 55' 17.74" N, 4° 58' 11.64" E
Runways
Designator Length Width Surface ROPS
1/19 2100 m6,889.764 ft
45 m147.638 ft
ASP /


METAR
Observation LFLU 201700Z AUTO 14003KT 9000 OVC019 07/05 Q1010
Station Valence-Chabeuil
Date/Time 20 November 2019 17:00:00
Wind direction 140°
Wind speed 03 kts
Lowest cloud amount overcast
Temperature 7°C
Dew point 5°C
Humidity 87%
QNH 1010 hPa
Weather condition n/a